Logo AVAMET
Benvolgut visitant, si us plau, ingressa Recuperar contrasenya

Inforatge el Puig de Santa Maria

Dades diàries. Acumulats / Últims 30 dies disponibles

Data Temperatura (°C) Humitat rel. (%) Pressió rel. (hPa) Vent (km/h) Precipitació
Mínima Mitjana Màxima Amplitud
tèrmica
Mínima Mitjana Màxima Mínima Mitjana Màxima Predom. Mitjana Ràfega
màxima
Total
(mm)
Índex-n
Mínima Mitjana Màxima Mínima Mitjana Màxima n
0 a 1
P0 max
mm 5'
Dades mensuals acumulades fins l'últim dia disponible
12/2019 9,6 11,1 12,8 12,6 13,0 14,8 18,7 9,1 40 79 95 1.005 1.013 1.023   10,0 51,5 65,4
Dades anuals acumulades fins l'últim dia disponible
2019 2,0 14,5 26,3 18,7 12,6 22,6 41,3 39,3 16 66 97 992 1.016 1.036   6,7 74,1 261,2
Últims 30 dies disponibles
05-12-2019 11,1     11,9     13,4 2,3 88 92 95 1.010 1.017 1.023 NE 8,7 37,0 17,2 0,42 0,80
04-12-2019 10,6     11,9     14,4 3,8 66 85 94 1.005 1.007 1.012 NE 13,2 51,5 33,8 0,24 1,10
03-12-2019 9,6     11,1     13,0 3,4 66 77 90 1.012 1.016 1.018 NE 8,7 41,8 9,2 0,30 0,40
02-12-2019 11,4     12,9     14,3 2,9 58 73 84 1.012 1.015 1.018 NE 10,8 38,6 5,2 0,42 0,40
01-12-2019 12,8     15,4     18,7 5,9 40 66 85 1.010 1.012 1.014 WNW 8,5 35,4 0,0
30-11-2019 10,3     16,7     22,8 12,5 47 66 86 1.014 1.018 1.021 O 6,4 33,8 0,0
29-11-2019 14,4     17,7     22,9 8,5 50 64 78 1.015 1.018 1.021 WSW 5,6 27,4 0,0
28-11-2019 12,9     16,3     19,8 6,9 48 58 70 1.013 1.015 1.017 WNW 12,2 46,7 0,0
27-11-2019 15,0     18,2     21,6 6,6 40 55 69 1.008 1.010 1.013 WNW 13,4 51,5 0,0
26-11-2019 10,4     17,4     23,2 12,8 44 60 78 1.008 1.011 1.015 WNW 9,3 45,1 0,0
25-11-2019 13,1     17,0     22,8 9,7 40 56 72 1.011 1.013 1.015 WNW 10,0 35,4 0,0
24-11-2019 9,1     13,9     18,7 9,6 35 49 64 1.007 1.011 1.014 WNW 8,2 46,7 0,0
23-11-2019 11,2     14,4     18,3 7,1 34 55 80 992 998 1.007 WNW 11,3 49,9 0,2
22-11-2019 9,0     12,8     15,9 6,9 67 81 91 993 1.002 1.008 WNW 2,7 24,1 1,0
21-11-2019 7,4     12,2     16,4 9,0 53 71 83 1.008 1.009 1.010 WNW 4,8 24,1 0,0
20-11-2019 7,4     11,7     16,3 8,9 44 65 79 1.009 1.012 1.015 WNW 5,0 19,3 0,0
19-11-2019 4,7     10,7     16,3 11,6 34 55 69 1.014 1.016 1.018 WNW 5,3 20,9 0,0
18-11-2019 8,5     12,4     15,8 7,3 41 57 76 1.007 1.011 1.016 NW 4,0 20,9 0,0
17-11-2019 5,3     11,3     16,4 11,1 39 55 70 1.008 1.012 1.014 WNW 10,6 48,3 0,0
16-11-2019 6,3     10,8     15,4 9,1 43 55 68 1.006 1.011 1.015 WNW 5,0 20,9 0,0
15-11-2019 6,9     11,4     16,1 9,2 37 54 77 1.000 1.003 1.006 WNW 7,2 30,6 0,0
14-11-2019 8,2     13,3     16,6 8,4 44 61 87 999 1.002 1.009 W 11,3 53,1 0,0
13-11-2019 12,3     15,1     19,2 6,9 45 68 86 1.004 1.008 1.011 WSW 6,6 29,0 0,8
12-11-2019 13,2     15,5     19,2 6,0 32 40 49 1.009 1.011 1.013 NNW 12,7 46,7 0,0
11-11-2019 8,7     14,2     19,1 10,4 34 46 61 1.010 1.013 1.015 NNW 7,4 46,7 0,0
10-11-2019 11,8     13,9     16,7 4,9 34 44 66 1.011 1.012 1.014 NW 13,0 53,1 0,0
09-11-2019 11,8     15,2     19,5 7,7 31 43 56 1.013 1.016 1.019 WNW 10,0 46,7 0,0
08-11-2019 9,5     13,6     17,9 8,4 31 44 56 1.009 1.012 1.016 WNW 9,8 49,9 0,0
07-11-2019 12,2     16,3     22,1 9,9 21 49 69 1.007 1.009 1.013 WNW 10,0 41,8 0,0
06-11-2019 11,1     16,1     21,4 10,3 30 48 69 1.011 1.012 1.014 NW 7,1 41,8 0,0
Últims 13 mesos disponibles
11/2019 4,7 11,2 20,3 15,4 15,4 19,8 28,6 23,9 40 55 81 998 1.010 1.018 WNW 9,1 57,9 2,0
10/2019 10,7 15,6 20,7 19,9 17,0 24,3 28,2 17,5 47 70 85 1.007 1.017 1.022 WNW 5,2 40,2 24,8
09/2019 15,4 19,9 23,1 23,4 20,9 26,8 34,6 19,2 48 73 83 1.010 1.018 1.025 SSE 6,6 56,3 67,2
08/2019 18,1 22,2 26,3 25,9 26,4 29,4 41,3 23,2 47 72 82 1.011 1.016 1.021 S 6,4 46,7 7,2
07/2019 20,4 22,4 24,3 26,1 27,1 29,3 36,2 15,8 51 69 81 1.005 1.014 1.021 S 6,5 43,5 14,4
06/2019 12,9 18,0 22,3 21,9 20,1 25,3 32,8 19,9 48 67 83 1.008 1.016 1.022 E 6,8 56,3 0,0
05/2019 8,8 14,1 18,2 17,9 17,2 21,4 29,7 20,9 46 69 85 1.005 1.015 1.025 SSE 6,7 55,6 23,4
04/2019 7,9 11,1 14,2 15,0 15,4 19,2 27,3 19,4 44 66 93 999 1.013 1.025 O 8,4 64,8 40,8
03/2019 5,3 8,7 13,7 14,1 12,6 18,6 28,5 23,2 44 60 84 1.015 1.023 1.030 SSO 5,5 56,3 16,0
02/2019 2,0 6,5 10,9 11,7 13,3 17,0 23,1 21,1 32 66 80 994 1.025 1.035 SSO 5,5 69,3 0,0
01/2019 2,9 6,5 11,1 11,9 13,1 16,7 20,7 17,8 41 57 78 1.001 1.013 1.022 O 6,5 74,1 0,0
Tots els anys disponibles
Temperatura (°C)
Humitat relativa (%)
Velocitat del vent i ràfega màxima (km/h)
Direcció del vent (°)
Pressió (hPa)
Precipitació (mm)
Nota sobre les dades: s'avisa a l'usuari de la provisionalitat i no oficialitat d'aquestes dades
Logo AVAMET blanc
Web allotjada a Sollutia
Llicència de Creative CommonsLa web d'AVAMET i els seus continguts estan subjectes a una llicència de
Reconeixement - No Comercial - Compartir igual
Últimes estacions: Aielo de Malferit - Centre (Soci), Faura (Inforatge), Benifairó de les Valls (Inforatge), Xàbia - Les Valls (Soci), Xàbia - Alt de la Granadella (Soci), Villena - Sierra de Salinas (Soci), Sueca - Centre (Inforatge) - - -